Time;durP1;ratioP1;P1;durP2;ratioP2;P2;SDS_P1;SDS_P2;PMS_P1;PMS_P2;Temp;Humidity;BMP_temperature;BMP_pressure;BME280_temperature;BME280_humidity;BME280_pressure;Samples;Min_cycle;Max_cycle;Signal;HPM_P1;HPM_P2
2023/10/23 00:00:36;;;;;;;12.65;11.32;;;11.40;99.90;;;;;;6271661;22;20030;-77
2023/10/23 00:03:01;;;;;;;10.30;9.30;;;11.30;99.90;;;;;;6271320;22;20000;-77
2023/10/23 00:05:27;;;;;;;10.57;9.57;;;11.30;99.90;;;;;;6271764;22;20054;-77
2023/10/23 00:07:52;;;;;;;11.07;9.98;;;11.20;99.90;;;;;;6270631;22;20413;-77
2023/10/23 00:10:18;;;;;;;12.63;9.70;;;11.20;99.90;;;;;;6271834;22;20417;-77
2023/10/23 00:12:43;;;;;;;13.80;11.75;;;11.10;99.90;;;;;;6271176;22;20010;-77
2023/10/23 00:15:09;;;;;;;9.27;8.38;;;11.10;99.90;;;;;;6271156;22;20460;-77
2023/10/23 00:17:35;;;;;;;12.85;11.55;;;11.10;99.90;;;;;;6243848;22;20575;-77
2023/10/23 00:20:04;;;;;;;9.85;8.90;;;11.10;99.90;;;;;;6271153;22;20070;-77
2023/10/23 00:22:30;;;;;;;10.02;8.70;;;11.00;99.90;;;;;;6270801;22;20027;-77
2023/10/23 00:24:55;;;;;;;9.90;8.70;;;11.00;99.90;;;;;;6270247;22;20011;-77
2023/10/23 00:27:21;;;;;;;12.13;10.65;;;11.00;99.90;;;;;;6270963;22;20008;-77
2023/10/23 00:29:46;;;;;;;12.77;9.80;;;11.00;99.90;;;;;;6271356;22;20298;-77
2023/10/23 00:32:12;;;;;;;10.57;9.57;;;10.90;99.90;;;;;;6271205;22;20030;-77
2023/10/23 00:34:37;;;;;;;11.25;10.13;;;10.90;99.90;;;;;;6271546;22;20003;-78
2023/10/23 00:37:03;;;;;;;10.38;9.38;;;10.90;99.90;;;;;;6243526;22;20004;-77
2023/10/23 00:39:28;;;;;;;12.05;10.13;;;10.90;99.90;;;;;;6271425;22;20050;-77
2023/10/23 00:41:54;;;;;;;10.18;9.15;;;10.90;99.90;;;;;;6271220;22;20042;-77
2023/10/23 00:44:19;;;;;;;9.55;8.63;;;10.90;99.90;;;;;;6271198;22;19999;-78
2023/10/23 00:46:45;;;;;;;9.48;8.65;;;10.80;99.90;;;;;;6271221;22;20004;-78
2023/10/23 00:49:11;;;;;;;11.88;8.50;;;10.80;99.90;;;;;;6271349;22;20221;-77
2023/10/23 00:51:37;;;;;;;10.23;9.18;;;10.80;99.90;;;;;;6270400;22;20008;-78
2023/10/23 00:54:05;;;;;;;9.75;8.75;;;10.70;99.90;;;;;;6271504;22;20004;-78
2023/10/23 00:56:32;;;;;;;8.90;7.90;;;10.70;99.90;;;;;;6271298;22;20000;-78
2023/10/23 00:58:58;;;;;;;11.55;9.48;;;10.70;99.90;;;;;;6243958;22;20717;-77
2023/10/23 01:01:24;;;;;;;10.02;9.13;;;10.70;99.90;;;;;;6271249;22;20004;-78
2023/10/23 01:03:49;;;;;;;11.55;9.98;;;10.70;99.90;;;;;;6271308;22;20475;-78
2023/10/23 01:06:15;;;;;;;11.63;10.52;;;10.70;99.90;;;;;;6270411;22;20004;-77
2023/10/23 01:08:42;;;;;;;11.45;10.35;;;10.70;99.90;;;;;;6271055;22;20000;-78
2023/10/23 01:11:07;;;;;;;10.55;9.45;;;10.70;99.90;;;;;;6271171;22;20008;-77
2023/10/23 01:13:33;;;;;;;10.52;9.45;;;10.70;99.90;;;;;;6271450;22;20054;-78
2023/10/23 01:15:58;;;;;;;10.82;9.52;;;10.70;99.90;;;;;;6270608;22;20000;-77
2023/10/23 01:18:24;;;;;;;13.02;11.25;;;10.70;99.90;;;;;;6271470;22;20011;-78
2023/10/23 01:20:50;;;;;;;10.80;9.70;;;10.70;99.90;;;;;;6270586;22;19999;-78
2023/10/23 01:23:15;;;;;;;10.98;9.98;;;10.60;99.90;;;;;;6271172;22;20074;-78
2023/10/23 01:25:41;;;;;;;11.25;9.93;;;10.60;99.90;;;;;;6270951;22;20003;-78
2023/10/23 01:28:07;;;;;;;10.95;9.85;;;10.70;99.90;;;;;;6271331;22;20008;-77
2023/10/23 01:30:33;;;;;;;13.73;11.73;;;10.70;99.90;;;;;;6271264;22;20079;-78
2023/10/23 01:32:58;;;;;;;10.73;9.73;;;10.70;99.90;;;;;;6271176;22;20007;-78
2023/10/23 01:35:24;;;;;;;11.63;10.52;;;10.80;99.90;;;;;;6243423;22;20011;-78
2023/10/23 01:37:51;;;;;;;12.63;10.70;;;10.80;99.90;;;;;;6271113;22;20012;-78
2023/10/23 01:40:17;;;;;;;10.43;9.10;;;10.90;99.90;;;;;;6271387;22;20082;-78
2023/10/23 01:42:43;;;;;;;12.50;11.30;;;10.90;99.90;;;;;;6271237;22;20511;-78
2023/10/23 01:45:09;;;;;;;12.20;10.90;;;11.00;99.90;;;;;;6270755;22;20101;-78
2023/10/23 01:47:34;;;;;;;10.52;9.48;;;11.00;99.90;;;;;;6271484;22;19999;-79
2023/10/23 01:50:00;;;;;;;12.75;10.95;;;11.10;99.90;;;;;;6270644;22;20098;-78
2023/10/23 01:52:26;;;;;;;14.70;12.05;;;11.10;99.90;;;;;;6271336;22;20510;-78
2023/10/23 01:54:52;;;;;;;12.73;11.43;;;11.20;99.90;;;;;;6271167;22;20075;-77
2023/10/23 01:57:18;;;;;;;12.77;11.55;;;11.20;99.90;;;;;;6271111;22;19999;-79
2023/10/23 01:59:44;;;;;;;13.70;11.80;;;11.20;99.90;;;;;;6271597;22;20003;-78
2023/10/23 02:02:10;;;;;;;13.98;11.30;;;11.30;99.90;;;;;;6271941;22;20057;-78
2023/10/23 02:04:36;;;;;;;15.50;12.73;;;11.30;99.90;;;;;;6272932;22;20107;-78
2023/10/23 02:07:02;;;;;;;11.45;10.32;;;11.30;99.90;;;;;;6272770;22;20046;-78
2023/10/23 02:09:28;;;;;;;16.30;13.02;;;11.40;99.90;;;;;;6245832;22;19999;-78
2023/10/23 02:11:53;;;;;;;13.80;12.25;;;11.40;99.90;;;;;;6273149;22;20000;-78
2023/10/23 02:14:19;;;;;;;12.73;11.05;;;11.40;99.90;;;;;;6272483;22;20425;-77
2023/10/23 02:16:44;;;;;;;14.35;12.85;;;11.50;99.90;;;;;;6273102;22;19995;-78
2023/10/23 02:19:10;;;;;;;13.73;12.43;;;11.50;99.90;;;;;;6245162;22;20000;-78
2023/10/23 02:21:36;;;;;;;15.63;13.20;;;11.60;99.90;;;;;;6273276;22;20437;-78
2023/10/23 02:24:01;;;;;;;15.23;12.70;;;11.60;99.90;;;;;;6272742;22;20117;-78
2023/10/23 02:26:29;;;;;;;13.73;12.32;;;11.60;99.90;;;;;;6273236;22;20425;-78
2023/10/23 02:28:55;;;;;;;16.13;13.75;;;11.60;99.90;;;;;;6272963;22;20074;-78
2023/10/23 02:31:20;;;;;;;14.98;13.45;;;11.60;99.90;;;;;;6272598;22;20047;-78
2023/10/23 02:33:46;;;;;;;15.55;13.95;;;11.70;99.90;;;;;;6272799;22;20004;-78
2023/10/23 02:36:12;;;;;;;14.23;12.75;;;11.70;99.90;;;;;;6273336;22;20010;-78
2023/10/23 02:38:37;;;;;;;17.83;14.90;;;11.70;99.90;;;;;;6246137;22;20039;-78
2023/10/23 02:41:03;;;;;;;13.93;12.48;;;11.70;99.90;;;;;;6272959;22;20444;-78
2023/10/23 02:43:29;;;;;;;15.90;14.23;;;11.60;99.90;;;;;;6273433;22;20321;-78
2023/10/23 02:45:59;;;;;;;20.13;14.40;;;11.70;99.90;;;;;;6273537;22;19995;-78
2023/10/23 02:48:25;;;;;;;17.42;13.95;;;11.60;99.90;;;;;;6245369;22;20011;-78
2023/10/23 02:50:55;;;;;;;14.13;12.63;;;11.60;99.90;;;;;;6273652;22;19999;-78
2023/10/23 02:53:21;;;;;;;14.38;12.30;;;11.50;99.90;;;;;;6272725;22;20306;-77
2023/10/23 02:55:47;;;;;;;18.10;14.07;;;11.50;99.90;;;;;;6273709;22;20023;-78
2023/10/23 02:58:12;;;;;;;22.23;13.15;;;11.40;99.90;;;;;;6272747;22;20417;-78
2023/10/23 03:00:39;;;;;;;14.93;12.68;;;11.40;99.90;;;;;;6246150;22;20042;-77
2023/10/23 03:03:04;;;;;;;14.13;12.63;;;11.40;99.90;;;;;;6271948;22;20000;-78
2023/10/23 03:05:30;;;;;;;13.68;12.27;;;11.40;99.90;;;;;;6273260;22;20007;-78
2023/10/23 03:07:55;;;;;;;14.90;11.18;;;11.40;99.90;;;;;;6273266;22;20004;-78
2023/10/23 03:10:21;;;;;;;12.85;11.48;;;11.40;99.90;;;;;;6245332;22;20023;-78
2023/10/23 03:12:47;;;;;;;14.88;12.05;;;11.40;99.90;;;;;;6272800;22;20018;-78
2023/10/23 03:15:14;;;;;;;17.63;14.13;;;11.40;99.90;;;;;;6272741;22;20070;-78
2023/10/23 03:17:39;;;;;;;13.38;11.98;;;11.50;99.90;;;;;;6272429;22;19996;-78
2023/10/23 03:20:06;;;;;;;14.93;10.95;;;11.50;99.90;;;;;;6272725;22;19995;-78
2023/10/23 03:22:32;;;;;;;15.20;12.88;;;11.50;99.90;;;;;;6273182;22;20024;-78
2023/10/23 03:24:59;;;;;;;15.02;13.40;;;11.50;99.90;;;;;;6273048;22;20039;-78
2023/10/23 03:27:24;;;;;;;17.40;14.52;;;11.60;99.90;;;;;;6272757;22;20000;-78
2023/10/23 03:29:50;;;;;;;13.25;11.85;;;11.60;99.90;;;;;;6272608;22;20000;-78
2023/10/23 03:32:15;;;;;;;14.52;12.68;;;11.60;99.90;;;;;;6272466;22;20065;-78
2023/10/23 03:34:41;;;;;;;12.95;11.43;;;11.70;99.90;;;;;;6273201;22;20010;-78
2023/10/23 03:37:07;;;;;;;15.55;13.75;;;11.70;99.90;;;;;;6272222;22;20000;-79
2023/10/23 03:39:32;;;;;;;17.10;13.80;;;11.70;99.90;;;;;;6272907;22;20016;-78
2023/10/23 03:41:57;;;;;;;14.13;12.63;;;11.70;99.90;;;;;;6272822;22;20030;-78
2023/10/23 03:44:23;;;;;;;18.77;14.80;;;11.80;99.90;;;;;;6271864;22;20025;-78
2023/10/23 03:46:49;;;;;;;22.73;15.40;;;11.80;99.90;;;;;;6272969;22;20439;-78
2023/10/23 03:49:14;;;;;;;19.50;15.00;;;11.80;99.90;;;;;;6272420;22;20000;-78
2023/10/23 03:51:40;;;;;;;16.13;13.35;;;11.80;99.90;;;;;;6272758;22;20406;-78
2023/10/23 03:54:05;;;;;;;15.02;13.40;;;11.90;99.90;;;;;;6272190;22;20008;-78
2023/10/23 03:56:31;;;;;;;13.50;11.98;;;11.90;99.90;;;;;;6272671;22;20153;-78
2023/10/23 03:58:56;;;;;;;14.70;13.18;;;11.90;99.90;;;;;;6272215;22;20010;-78
2023/10/23 04:01:22;;;;;;;14.50;11.93;;;11.90;99.90;;;;;;6271743;22;20027;-78
2023/10/23 04:03:48;;;;;;;16.75;13.82;;;11.90;99.90;;;;;;6272688;22;20010;-78
2023/10/23 04:06:13;;;;;;;14.60;13.00;;;11.90;99.90;;;;;;6272311;22;20035;-78
2023/10/23 04:08:39;;;;;;;13.25;11.05;;;11.90;99.90;;;;;;6272578;22;20003;-78
2023/10/23 04:11:04;;;;;;;14.35;12.10;;;11.90;99.90;;;;;;6272213;22;20004;-78
2023/10/23 04:13:30;;;;;;;14.82;13.30;;;11.90;99.90;;;;;;6271874;22;20138;-78
2023/10/23 04:15:57;;;;;;;14.75;13.00;;;11.90;99.90;;;;;;6272611;22;20061;-77
2023/10/23 04:18:24;;;;;;;13.98;12.57;;;11.90;99.90;;;;;;6272138;22;19992;-78
2023/10/23 04:20:50;;;;;;;12.70;11.40;;;11.90;99.90;;;;;;6272621;22;19999;-79
2023/10/23 04:23:16;;;;;;;15.95;12.10;;;11.90;99.90;;;;;;6271980;22;20031;-78
2023/10/23 04:25:41;;;;;;;14.25;11.07;;;12.00;99.90;;;;;;6272388;22;20007;-78
2023/10/23 04:28:07;;;;;;;14.73;11.32;;;12.00;99.90;;;;;;6271359;22;20054;-78
2023/10/23 04:30:32;;;;;;;16.92;13.43;;;12.00;99.90;;;;;;6245142;22;20333;-78
2023/10/23 04:32:58;;;;;;;14.23;10.50;;;11.90;99.90;;;;;;6272133;22;20082;-77
2023/10/23 04:35:24;;;;;;;16.80;12.00;;;11.90;99.90;;;;;;6272046;22;20053;-78
2023/10/23 04:37:49;;;;;;;15.68;11.82;;;11.90;99.90;;;;;;6271935;22;20030;-78
2023/10/23 04:40:15;;;;;;;15.85;11.15;;;11.80;99.90;;;;;;6271933;22;20072;-78
2023/10/23 04:42:41;;;;;;;16.58;12.40;;;11.80;99.90;;;;;;6271629;22;20007;-78
2023/10/23 04:45:07;;;;;;;13.30;11.18;;;11.80;99.90;;;;;;6271901;22;20064;-78
2023/10/23 04:47:32;;;;;;;16.75;11.25;;;11.70;99.90;;;;;;6272388;22;20004;-78
2023/10/23 04:49:58;;;;;;;15.00;12.10;;;11.70;99.90;;;;;;6272309;22;20056;-78
2023/10/23 04:52:23;;;;;;;20.35;12.93;;;11.70;99.90;;;;;;6271776;22;20031;-78
2023/10/23 04:54:49;;;;;;;19.60;13.45;;;11.70;99.90;;;;;;6245330;22;20010;-78
2023/10/23 04:57:15;;;;;;;17.40;14.35;;;11.70;99.90;;;;;;6271356;22;20314;-78
2023/10/23 04:59:40;;;;;;;17.55;12.95;;;11.60;99.90;;;;;;6271934;22;20000;-78
2023/10/23 05:02:06;;;;;;;17.48;12.90;;;11.60;99.90;;;;;;6271583;22;20459;-78
2023/10/23 05:04:31;;;;;;;17.30;13.57;;;11.60;99.90;;;;;;6270169;22;20330;-78
2023/10/23 05:06:57;;;;;;;18.75;13.07;;;11.60;99.90;;;;;;6271024;22;20437;-77
2023/10/23 05:09:23;;;;;;;19.27;13.80;;;11.60;99.90;;;;;;6269872;22;20000;-78
2023/10/23 05:11:49;;;;;;;19.70;14.60;;;11.60;99.90;;;;;;6271358;22;20429;-78
2023/10/23 05:14:14;;;;;;;15.10;13.07;;;11.60;99.90;;;;;;6271506;22;20000;-78
2023/10/23 05:16:40;;;;;;;15.70;12.35;;;11.60;99.90;;;;;;6272089;22;20006;-78
2023/10/23 05:19:07;;;;;;;18.48;13.80;;;11.60;99.90;;;;;;6244631;22;20000;-78
2023/10/23 05:21:32;;;;;;;19.42;14.52;;;11.60;99.90;;;;;;6272203;22;20000;-78
2023/10/23 05:23:58;;;;;;;16.70;13.85;;;11.60;99.90;;;;;;6272135;22;20011;-78
2023/10/23 05:26:23;;;;;;;17.08;13.30;;;11.60;99.90;;;;;;6244216;22;20004;-78
2023/10/23 05:28:51;;;;;;;18.33;14.38;;;11.60;99.90;;;;;;6272130;22;20004;-78
2023/10/23 05:31:18;;;;;;;18.33;14.88;;;11.60;99.90;;;;;;6271895;22;20030;-78
2023/10/23 05:33:43;;;;;;;16.70;13.35;;;11.60;99.90;;;;;;6245057;22;20014;-77
2023/10/23 05:36:12;;;;;;;16.17;13.68;;;11.60;99.90;;;;;;6272104;22;20066;-78
2023/10/23 05:38:38;;;;;;;16.92;14.20;;;11.60;99.90;;;;;;6274024;22;20046;-77
2023/10/23 05:41:05;;;;;;;18.75;12.68;;;11.50;99.90;;;;;;6273276;22;20070;-78
2023/10/23 05:43:31;;;;;;;18.52;12.93;;;11.60;99.90;;;;;;6274036;22;20000;-77
2023/10/23 05:45:57;;;;;;;14.20;12.70;;;11.60;99.90;;;;;;6274139;22;20000;-78
2023/10/23 05:48:23;;;;;;;15.55;13.45;;;11.60;99.90;;;;;;6273457;22;20053;-77
2023/10/23 05:51:05;;;;;;;15.00;12.48;;;11.60;99.90;;;;;;6274279;22;20075;-78
2023/10/23 05:53:31;;;;;;;19.85;13.13;;;11.60;99.90;;;;;;6274315;22;20082;-78
2023/10/23 05:56:04;;;;;;;14.85;13.25;;;11.60;99.90;;;;;;6273432;22;20031;-78
2023/10/23 05:58:31;;;;;;;16.90;13.10;;;11.60;99.90;;;;;;6274243;22;20062;-79
2023/10/23 06:00:56;;;;;;;22.13;14.25;;;11.60;99.90;;;;;;6273871;22;20413;-78
2023/10/23 06:03:22;;;;;;;20.15;15.15;;;11.60;99.90;;;;;;6273351;22;20004;-78
2023/10/23 06:05:47;;;;;;;13.95;12.50;;;11.70;99.90;;;;;;6274279;22;20011;-73
2023/10/23 06:08:13;;;;;;;18.27;13.25;;;11.70;99.90;;;;;;6273314;22;20069;-74
2023/10/23 06:10:43;;;;;;;20.77;14.38;;;11.70;99.90;;;;;;6273209;22;20004;-74
2023/10/23 06:13:08;;;;;;;34.97;16.90;;;11.70;99.90;;;;;;6272891;22;20433;-74
2023/10/23 06:15:34;;;;;;;28.58;16.75;;;11.70;99.90;;;;;;6273707;22;20050;-74
2023/10/23 06:18:01;;;;;;;21.25;14.60;;;11.70;99.90;;;;;;6273116;22;20007;-74
2023/10/23 06:20:27;;;;;;;28.30;15.98;;;11.60;99.90;;;;;;6273602;22;20503;-74
2023/10/23 06:22:52;;;;;;;28.95;14.75;;;11.60;99.90;;;;;;6273297;22;20008;-73
2023/10/23 06:25:18;;;;;;;33.92;16.30;;;11.60;99.90;;;;;;6272786;22;20014;-74
2023/10/23 06:27:44;;;;;;;23.77;14.25;;;11.60;99.90;;;;;;6246656;22;20035;-74
2023/10/23 06:30:10;;;;;;;32.55;16.23;;;11.60;99.90;;;;;;6273212;22;19999;-74
2023/10/23 06:32:35;;;;;;;41.55;16.52;;;11.60;99.90;;;;;;6273560;22;20062;-74
2023/10/23 06:35:01;;;;;;;24.33;13.38;;;11.60;99.90;;;;;;6273186;22;19992;-74
2023/10/23 06:37:27;;;;;;;20.83;13.50;;;11.60;99.90;;;;;;6273324;22;20015;-73
2023/10/23 06:39:52;;;;;;;21.00;12.90;;;11.70;99.90;;;;;;6245888;22;20011;-74
2023/10/23 06:42:18;;;;;;;27.25;14.02;;;11.70;99.90;;;;;;6273214;22;20392;-74
2023/10/23 06:44:43;;;;;;;20.63;12.50;;;11.70;99.90;;;;;;6273484;22;20061;-74
2023/10/23 06:47:10;;;;;;;41.38;13.38;;;11.70;99.90;;;;;;6272750;22;20011;-74
2023/10/23 06:49:37;;;;;;;34.00;14.27;;;11.70;99.90;;;;;;6273455;22;20009;-73
2023/10/23 06:52:04;;;;;;;22.85;12.35;;;11.70;99.90;;;;;;6272721;22;20414;-74
2023/10/23 06:54:29;;;;;;;67.25;16.25;;;11.70;99.90;;;;;;6273104;22;20053;-73
2023/10/23 06:56:55;;;;;;;23.33;13.98;;;11.70;99.90;;;;;;6273282;22;20306;-73
2023/10/23 06:59:20;;;;;;;28.02;13.13;;;11.70;99.90;;;;;;6264089;22;19996;-73
2023/10/23 07:01:46;;;;;;;21.20;11.88;;;11.70;99.90;;;;;;6269105;22;20042;-73
2023/10/23 07:04:11;;;;;;;21.52;12.95;;;11.70;99.90;;;;;;6271029;22;20081;-73
2023/10/23 07:06:37;;;;;;;29.88;12.85;;;11.70;99.90;;;;;;6272771;22;20011;-73
2023/10/23 07:09:04;;;;;;;22.60;11.73;;;11.80;99.90;;;;;;6244462;22;20000;-73
2023/10/23 07:11:29;;;;;;;22.88;10.30;;;11.80;99.90;;;;;;6272923;22;20329;-73
2023/10/23 07:13:55;;;;;;;24.08;11.30;;;11.80;99.90;;;;;;6244224;22;20018;-73
2023/10/23 07:16:21;;;;;;;20.63;9.43;;;11.80;99.90;;;;;;6272410;22;20606;-73
2023/10/23 07:18:47;;;;;;;19.95;8.93;;;11.80;99.90;;;;;;6273195;22;20004;-73
2023/10/23 07:21:13;;;;;;;17.70;8.93;;;11.80;99.90;;;;;;6272512;22;20075;-73
2023/10/23 07:23:38;;;;;;;18.80;9.93;;;11.80;99.90;;;;;;6271370;22;20003;-73
2023/10/23 07:26:14;;;;;;;15.35;8.43;;;11.70;99.90;;;;;;6270574;22;20364;-73
2023/10/23 07:28:40;;;;;;;23.02;10.13;;;11.70;99.90;;;;;;6271596;22;20022;-73
2023/10/23 07:31:07;;;;;;;20.58;9.50;;;11.70;99.90;;;;;;6270487;22;19996;-73
2023/10/23 07:33:33;;;;;;;21.58;9.30;;;11.70;99.90;;;;;;6272357;22;20731;-74
2023/10/23 07:36:03;;;;;;;19.05;9.07;;;11.70;99.90;;;;;;6270803;22;19996;-74
2023/10/23 07:38:29;;;;;;;15.93;8.07;;;11.70;99.90;;;;;;6271594;22;20008;-74
2023/10/23 07:40:54;;;;;;;24.88;9.40;;;11.60;99.90;;;;;;6245072;22;20065;-74
2023/10/23 07:43:20;;;;;;;28.92;11.65;;;11.60;99.90;;;;;;6244589;22;20452;-74
2023/10/23 07:45:45;;;;;;;29.92;10.50;;;11.60;99.90;;;;;;6270856;22;20012;-73
2023/10/23 07:48:11;;;;;;;21.08;10.48;;;11.50;99.90;;;;;;6271521;22;20011;-74
2023/10/23 07:50:36;;;;;;;23.95;11.07;;;11.50;99.90;;;;;;6272544;22;20083;-74
2023/10/23 07:53:02;;;;;;;21.67;9.40;;;11.50;99.90;;;;;;6271211;22;20429;-74
2023/10/23 07:55:28;;;;;;;26.30;11.60;;;11.50;99.90;;;;;;6245262;22;20433;-74
2023/10/23 07:57:53;;;;;;;35.13;12.00;;;11.50;99.90;;;;;;6270900;22;20078;-74
2023/10/23 08:00:19;;;;;;;21.77;11.05;;;11.60;99.90;;;;;;6271307;22;20003;-74
2023/10/23 08:02:44;;;;;;;35.88;13.68;;;11.60;99.90;;;;;;6272620;22;20004;-74
2023/10/23 08:05:11;;;;;;;19.88;11.05;;;11.60;99.90;;;;;;6271413;22;20004;-74
2023/10/23 08:07:37;;;;;;;22.90;12.73;;;11.70;99.90;;;;;;6271998;22;20013;-74
2023/10/23 08:10:03;;;;;;;18.73;11.70;;;11.70;99.90;;;;;;6244345;22;20011;-75
2023/10/23 08:12:29;;;;;;;30.20;12.85;;;11.80;99.90;;;;;;6271879;22;20079;-75
2023/10/23 08:14:55;;;;;;;26.85;13.85;;;11.80;99.90;;;;;;6272262;22;20027;-75
2023/10/23 08:17:20;;;;;;;28.23;13.85;;;11.80;99.90;;;;;;6271374;22;20384;-74
2023/10/23 08:19:46;;;;;;;40.95;15.02;;;11.80;99.90;;;;;;6272132;22;19996;-74
2023/10/23 08:22:11;;;;;;;27.67;13.02;;;11.80;99.90;;;;;;6271214;22;20008;-74
2023/10/23 08:24:37;;;;;;;22.80;11.98;;;11.80;99.90;;;;;;6271980;22;20003;-74
2023/10/23 08:27:02;;;;;;;16.27;13.10;;;11.80;99.90;;;;;;6244525;22;20007;-73
2023/10/23 08:29:28;;;;;;;24.90;12.95;;;11.80;99.90;;;;;;6272258;22;20010;-74
2023/10/23 08:31:54;;;;;;;24.38;12.70;;;11.90;99.90;;;;;;6271825;22;20057;-74
2023/10/23 08:34:21;;;;;;;20.58;11.18;;;11.90;99.90;;;;;;6271223;22;20314;-73
2023/10/23 08:36:48;;;;;;;24.02;11.38;;;11.90;99.90;;;;;;6272421;22;20003;-74
2023/10/23 08:39:13;;;;;;;13.57;11.35;;;11.90;99.90;;;;;;6271366;22;20047;-74
2023/10/23 08:41:39;;;;;;;25.55;10.77;;;12.00;99.90;;;;;;6244874;22;20057;-74
2023/10/23 08:44:05;;;;;;;17.75;10.98;;;12.00;99.90;;;;;;6271475;22;20413;-74
2023/10/23 08:46:33;;;;;;;21.15;12.80;;;12.00;99.90;;;;;;6272062;22;20075;-74
2023/10/23 08:48:59;;;;;;;20.10;12.57;;;12.00;99.90;;;;;;6243841;22;20101;-74
2023/10/23 08:51:26;;;;;;;23.25;14.70;;;12.00;99.90;;;;;;6271797;22;20141;-74
2023/10/23 08:54:18;;;;;;;26.33;14.27;;;12.10;99.90;;;;;;6272078;22;20003;-74
2023/10/23 08:56:46;;;;;;;27.27;13.32;;;12.10;99.90;;;;;;6265783;22;20075;-74
2023/10/23 08:59:14;;;;;;;22.25;14.88;;;12.10;99.90;;;;;;6271608;22;20452;-73
2023/10/23 09:01:40;;;;;;;20.10;15.13;;;12.10;99.90;;;;;;6271761;22;20388;-73
2023/10/23 09:04:06;;;;;;;31.25;17.05;;;12.10;99.90;;;;;;6271112;22;19999;-73
2023/10/23 09:06:33;;;;;;;19.60;13.63;;;12.10;99.90;;;;;;6272024;22;20000;-72
2023/10/23 09:08:59;;;;;;;22.60;13.65;;;12.10;99.90;;;;;;6272055;22;20006;-72
2023/10/23 09:11:48;;;;;;;28.40;15.30;;;12.10;99.90;;;;;;6272159;22;20061;-72
2023/10/23 09:14:25;;;;;;;23.23;14.23;;;12.10;99.90;;;;;;6273528;22;20035;-72
2023/10/23 09:16:52;;;;;;;23.70;16.25;;;12.10;99.90;;;;;;6274027;22;20421;-72
2023/10/23 09:19:26;;;;;;;30.27;16.75;;;12.10;99.90;;;;;;6272456;22;20000;-72
2023/10/23 09:21:56;;;;;;;18.67;15.57;;;12.20;99.90;;;;;;6273682;22;20027;-72
2023/10/23 09:24:22;;;;;;;20.80;14.20;;;12.20;99.90;;;;;;6273304;22;20408;-72
2023/10/23 09:26:50;;;;;;;23.80;16.70;;;12.30;99.90;;;;;;6274008;22;20038;-72
2023/10/23 09:29:20;;;;;;;24.98;16.02;;;12.40;99.90;;;;;;6272932;22;19999;-72
2023/10/23 09:31:45;;;;;;;21.92;16.90;;;12.40;99.90;;;;;;6273885;22;20000;-72
2023/10/23 09:34:12;;;;;;;23.58;17.08;;;12.40;99.90;;;;;;6272228;22;20085;-72
2023/10/23 09:36:37;;;;;;;20.65;15.48;;;12.40;99.90;;;;;;6273624;22;20228;-73
2023/10/23 09:39:04;;;;;;;24.90;18.85;;;12.40;99.90;;;;;;6272611;22;20054;-73
2023/10/23 09:41:30;;;;;;;22.98;15.98;;;12.50;99.90;;;;;;6273632;22;20000;-73
2023/10/23 09:43:57;;;;;;;19.00;16.48;;;12.50;99.90;;;;;;6273513;22;20038;-73
2023/10/23 09:46:25;;;;;;;25.50;18.95;;;12.60;99.90;;;;;;6273168;22;20022;-73
2023/10/23 09:48:52;;;;;;;24.10;17.13;;;12.60;99.90;;;;;;6272591;22;20074;-73
2023/10/23 09:51:19;;;;;;;27.67;18.35;;;12.60;99.90;;;;;;6273380;22;20011;-72
2023/10/23 09:53:59;;;;;;;28.92;18.20;;;12.70;99.90;;;;;;6273716;22;20333;-72
2023/10/23 09:56:30;;;;;;;25.65;19.38;;;12.70;99.90;;;;;;6273051;22;20000;-72
2023/10/23 09:59:03;;;;;;;22.40;17.52;;;12.70;99.90;;;;;;6246002;22;20007;-73
2023/10/23 10:01:36;;;;;;;29.27;21.25;;;12.70;99.90;;;;;;6272912;22;20079;-73
2023/10/23 10:04:08;;;;;;;27.00;21.00;;;12.80;99.90;;;;;;6272587;22;20014;-73
2023/10/23 10:06:35;;;;;;;27.67;20.55;;;12.80;99.90;;;;;;6272928;22;20011;-74
2023/10/23 10:09:04;;;;;;;29.00;21.13;;;12.90;99.90;;;;;;6273177;22;20018;-74
2023/10/23 10:11:30;;;;;;;28.35;20.65;;;13.00;99.90;;;;;;6272597;22;19996;-74
2023/10/23 10:13:56;;;;;;;23.77;19.73;;;13.00;99.90;;;;;;6273114;22;20007;-74
2023/10/23 10:16:22;;;;;;;20.88;18.60;;;13.10;99.90;;;;;;6271998;22;20474;-73
2023/10/23 10:18:48;;;;;;;26.45;19.20;;;13.20;99.90;;;;;;6273549;22;20000;-74
2023/10/23 10:21:19;;;;;;;22.17;17.77;;;13.20;99.90;;;;;;6272917;22;20000;-74
2023/10/23 10:23:45;;;;;;;25.73;20.23;;;13.30;99.90;;;;;;6273182;22;20083;-74
2023/10/23 10:26:11;;;;;;;24.48;19.15;;;13.40;99.90;;;;;;6272466;22;20386;-74
2023/10/23 10:28:39;;;;;;;22.05;17.85;;;13.40;99.90;;;;;;6272845;22;20008;-74
2023/10/23 10:31:04;;;;;;;24.08;17.67;;;13.50;99.90;;;;;;6269543;22;20389;-74
2023/10/23 10:33:31;;;;;;;24.50;17.48;;;13.50;99.90;;;;;;6271458;22;20057;-74
2023/10/23 10:36:07;;;;;;;23.60;17.05;;;13.60;99.90;;;;;;6272682;22;20187;-74
2023/10/23 10:38:34;;;;;;;21.05;18.00;;;13.70;99.90;;;;;;6272205;22;20024;-74
2023/10/23 10:41:02;;;;;;;22.83;17.27;;;13.70;99.90;;;;;;6271439;22;20508;-73
2023/10/23 10:43:39;;;;;;;20.85;15.55;;;13.80;99.90;;;;;;6270171;22;20497;-73
2023/10/23 10:46:15;;;;;;;17.33;14.70;;;13.90;99.90;;;;;;6271244;22;19996;-74
2023/10/23 10:48:45;;;;;;;23.08;15.15;;;13.90;99.90;;;;;;6273076;22;20457;-74
2023/10/23 10:51:22;;;;;;;20.25;14.00;;;13.90;99.90;;;;;;6272415;22;20030;-74
2023/10/23 10:54:00;;;;;;;20.90;15.40;;;13.90;99.90;;;;;;6272168;22;20011;-74
2023/10/23 10:56:26;;;;;;;18.60;14.70;;;13.90;99.90;;;;;;6272472;22;20505;-74
2023/10/23 10:58:51;;;;;;;21.42;15.95;;;14.00;99.90;;;;;;6272935;22;20131;-74
2023/10/23 11:01:21;;;;;;;20.73;15.40;;;14.00;99.90;;;;;;6271748;22;20093;-74
2023/10/23 11:03:46;;;;;;;15.68;13.65;;;14.10;99.90;;;;;;6273004;22;20009;-73
2023/10/23 11:06:12;;;;;;;20.80;14.85;;;14.10;99.90;;;;;;6269956;22;20015;-74
2023/10/23 11:08:40;;;;;;;16.90;14.95;;;14.10;99.90;;;;;;6272832;22;20031;-74
2023/10/23 11:11:05;;;;;;;21.23;15.65;;;14.20;99.90;;;;;;6271975;22;20003;-73
2023/10/23 11:13:34;;;;;;;17.67;14.27;;;14.20;99.90;;;;;;6271996;22;20130;-73
2023/10/23 11:16:00;;;;;;;15.13;13.43;;;14.20;99.90;;;;;;6270018;22;20034;-73
2023/10/23 11:18:27;;;;;;;23.92;14.10;;;14.30;99.90;;;;;;6272597;22;20004;-73
2023/10/23 11:21:00;;;;;;;18.08;14.75;;;14.30;99.90;;;;;;6272667;22;19995;-73
2023/10/23 11:23:29;;;;;;;17.83;14.82;;;14.30;99.90;;;;;;6272603;22;20003;-73
2023/10/23 11:25:54;;;;;;;16.20;13.00;;;14.40;99.90;;;;;;6272305;22;20417;-73
2023/10/23 11:28:21;;;;;;;21.75;15.90;;;14.50;99.90;;;;;;6270571;22;20003;-74
2023/10/23 11:30:49;;;;;;;17.77;15.82;;;14.50;99.90;;;;;;6272624;22;20011;-73
2023/10/23 11:33:18;;;;;;;21.58;15.98;;;14.50;99.90;;;;;;6271973;22;20041;-73
2023/10/23 11:35:43;;;;;;;26.20;16.90;;;14.60;99.90;;;;;;6271660;22;20011;-72
2023/10/23 11:38:19;;;;;;;24.02;18.08;;;14.60;99.90;;;;;;6270079;22;20008;-72
2023/10/23 11:40:45;;;;;;;20.48;15.32;;;14.60;99.90;;;;;;6271780;22;20011;-73
2023/10/23 11:43:13;;;;;;;24.38;17.23;;;14.60;99.90;;;;;;6243899;22;20050;-73
2023/10/23 11:45:40;;;;;;;21.23;16.80;;;14.60;99.90;;;;;;6272496;22;20010;-73
2023/10/23 11:48:07;;;;;;;20.38;15.85;;;14.60;99.90;;;;;;6243507;22;20004;-73
2023/10/23 11:50:35;;;;;;;29.25;17.88;;;14.70;99.90;;;;;;6245314;22;20341;-73
2023/10/23 11:53:01;;;;;;;21.00;17.42;;;14.80;99.90;;;;;;6271730;22;20011;-73
2023/10/23 11:55:26;;;;;;;25.60;16.40;;;14.80;99.90;;;;;;6271979;22;20004;-73
2023/10/23 11:57:52;;;;;;;24.83;17.33;;;14.80;99.90;;;;;;6271708;22;20066;-73
2023/10/23 12:00:20;;;;;;;24.15;17.55;;;14.80;99.90;;;;;;6270859;22;20046;-73
2023/10/23 12:02:47;;;;;;;29.75;16.65;;;14.80;99.90;;;;;;6272097;22;20081;-74
2023/10/23 12:05:15;;;;;;;22.70;15.75;;;14.90;99.90;;;;;;6271858;22;19999;-74
2023/10/23 12:07:47;;;;;;;25.00;15.65;;;14.90;99.90;;;;;;6272195;22;20322;-74
2023/10/23 12:10:13;;;;;;;20.77;16.40;;;14.90;99.90;;;;;;6271435;22;20053;-74
2023/10/23 12:12:41;;;;;;;17.40;13.43;;;15.00;99.90;;;;;;6271333;22;20018;-74
2023/10/23 12:15:08;;;;;;;20.92;13.20;;;15.00;99.90;;;;;;6270986;22;20023;-74
2023/10/23 12:17:34;;;;;;;18.05;12.85;;;15.10;99.90;;;;;;6272170;22;20003;-74
2023/10/23 12:20:00;;;;;;;18.38;12.32;;;15.10;99.90;;;;;;6271917;22;20336;-73
2023/10/23 12:22:25;;;;;;;16.15;11.55;;;15.10;99.90;;;;;;6271824;22;20075;-73
2023/10/23 12:24:51;;;;;;;14.82;9.00;;;15.20;99.90;;;;;;6272065;22;20329;-73